Time;durP1;ratioP1;P1;durP2;ratioP2;P2;SDS_P1;SDS_P2;PMS_P1;PMS_P2;Temp;Humidity;BMP_temperature;BMP_pressure;BME280_temperature;BME280_humidity;BME280_pressure;Samples;Min_cycle;Max_cycle;Signal;HPM_P1;HPM_P2
2021/08/05 00:02:05;;;;;;;2.00;0.93;;;21.80;80.50;;;;;;4987510;28;20082;-83
2021/08/05 00:04:31;;;;;;;16.05;1.60;;;21.70;80.50;;;;;;4987329;28;20030;-85
2021/08/05 00:06:56;;;;;;;3.47;1.30;;;21.70;82.30;;;;;;4987914;28;20064;-82
2021/08/05 00:09:22;;;;;;;3.45;1.35;;;21.70;83.40;;;;;;4987338;28;20526;-84
2021/08/05 00:11:48;;;;;;;2.75;1.27;;;21.70;83.40;;;;;;4988590;28;20557;-85
2021/08/05 00:14:13;;;;;;;3.67;1.10;;;21.60;83.30;;;;;;4971700;28;20562;-86
2021/08/05 00:16:40;;;;;;;4.90;1.10;;;21.60;83.20;;;;;;4987148;28;20120;-86
2021/08/05 00:19:05;;;;;;;2.25;1.20;;;21.60;82.70;;;;;;4987319;28;20026;-83
2021/08/05 00:21:31;;;;;;;2.25;1.23;;;21.60;82.80;;;;;;4988712;28;20613;-82
2021/08/05 00:23:57;;;;;;;2.67;1.20;;;21.60;83.00;;;;;;4970810;28;20042;-84
2021/08/05 00:26:22;;;;;;;2.92;1.15;;;21.60;83.40;;;;;;4988322;28;20038;-82
2021/08/05 00:28:48;;;;;;;2.60;1.10;;;21.50;83.60;;;;;;4986779;28;20022;-84
2021/08/05 00:31:14;;;;;;;2.22;1.08;;;21.60;83.80;;;;;;4987299;28;20038;-85
2021/08/05 00:33:40;;;;;;;2.75;1.20;;;21.60;83.90;;;;;;4987654;28;20029;-85
2021/08/05 00:36:06;;;;;;;2.97;1.08;;;21.50;83.80;;;;;;4986994;28;20039;-84
2021/08/05 00:38:32;;;;;;;1.98;0.98;;;21.50;84.30;;;;;;4988183;28;20061;-86
2021/08/05 00:40:58;;;;;;;4.90;1.45;;;21.40;84.70;;;;;;4970664;28;20034;-85
2021/08/05 00:43:24;;;;;;;2.42;1.33;;;21.40;85.20;;;;;;4986937;28;20450;-85
2021/08/05 00:45:50;;;;;;;2.63;1.00;;;21.40;85.70;;;;;;4987176;28;20031;-83
2021/08/05 00:48:15;;;;;;;2.58;1.25;;;21.40;85.30;;;;;;4987047;28;20053;-85
2021/08/05 00:50:42;;;;;;;8.82;1.30;;;21.40;85.20;;;;;;4970388;28;20050;-84
2021/08/05 00:53:08;;;;;;;5.22;1.27;;;21.40;84.90;;;;;;4986757;28;20431;-85
2021/08/05 00:55:34;;;;;;;6.32;1.42;;;21.50;84.70;;;;;;4986120;28;20852;-85
2021/08/05 00:58:00;;;;;;;4.00;1.30;;;21.50;84.70;;;;;;4986893;28;20034;-83
2021/08/05 01:00:26;;;;;;;10.95;1.75;;;21.50;84.80;;;;;;4986182;28;20037;-83
2021/08/05 01:02:59;;;;;;;3.90;1.50;;;21.50;84.80;;;;;;4986414;28;20109;-85
2021/08/05 01:05:29;;;;;;;2.95;1.02;;;21.50;84.90;;;;;;4987634;28;20129;-84
2021/08/05 01:08:14;;;;;;;6.32;1.45;;;21.50;85.00;;;;;;4986729;28;20033;-85
2021/08/05 01:10:51;;;;;;;3.38;1.10;;;21.60;84.90;;;;;;4986635;28;20495;-84
2021/08/05 01:13:28;;;;;;;3.38;1.08;;;21.50;85.20;;;;;;4987577;28;20033;-85
2021/08/05 01:15:55;;;;;;;2.35;1.05;;;21.50;85.50;;;;;;4970068;28;20072;-82
2021/08/05 01:18:32;;;;;;;1.33;0.82;;;21.50;85.90;;;;;;4986319;28;20037;-85
2021/08/05 01:21:29;;;;;;;3.25;0.90;;;21.60;86.20;;;;;;4985593;28;20062;-86
2021/08/05 01:24:04;;;;;;;5.53;1.23;;;21.60;86.30;;;;;;4965045;28;20046;-82
2021/08/05 01:26:30;;;;;;;3.60;1.42;;;21.60;86.50;;;;;;4987054;28;20089;-83
2021/08/05 01:28:58;;;;;;;2.38;1.00;;;21.60;86.60;;;;;;4970398;28;20435;-84
2021/08/05 01:31:25;;;;;;;6.18;1.35;;;21.70;86.80;;;;;;4986154;28;20466;-85
2021/08/05 01:33:52;;;;;;;2.22;1.10;;;21.80;87.10;;;;;;4986171;28;20491;-83
2021/08/05 01:36:19;;;;;;;1.73;0.98;;;21.80;87.10;;;;;;4987408;28;20124;-84
2021/08/05 01:38:47;;;;;;;2.65;0.90;;;21.80;87.10;;;;;;4985742;28;20019;-84
2021/08/05 01:41:15;;;;;;;1.80;1.05;;;21.90;87.70;;;;;;4986830;28;20471;-82
2021/08/05 01:43:43;;;;;;;3.17;1.10;;;21.90;87.40;;;;;;4987270;28;20073;-84
2021/08/05 01:46:10;;;;;;;3.45;1.35;;;21.80;87.50;;;;;;4986199;28;20037;-84
2021/08/05 01:48:37;;;;;;;3.33;1.50;;;21.80;87.70;;;;;;4986958;28;20049;-84
2021/08/05 01:51:05;;;;;;;2.95;1.00;;;21.80;87.70;;;;;;4986042;28;20190;-85
2021/08/05 01:53:33;;;;;;;3.10;1.20;;;21.90;87.70;;;;;;4985535;28;20097;-82
2021/08/05 01:55:59;;;;;;;3.47;1.58;;;21.90;87.90;;;;;;4968869;28;20034;-83
2021/08/05 01:58:25;;;;;;;2.88;1.30;;;21.90;88.10;;;;;;4970118;28;20026;-83
2021/08/05 02:00:51;;;;;;;2.95;1.65;;;21.90;88.70;;;;;;4985861;28;20038;-84
2021/08/05 02:03:17;;;;;;;7.70;1.98;;;22.00;88.90;;;;;;4985452;28;20045;-83
2021/08/05 02:06:08;;;;;;;2.60;1.33;;;22.10;89.30;;;;;;4987470;28;20416;-86
2021/08/05 02:08:44;;;;;;;2.95;1.73;;;22.00;89.00;;;;;;4969773;28;20026;-87
2021/08/05 02:11:10;;;;;;;4.00;2.10;;;22.20;89.00;;;;;;4985191;28;20030;-86
2021/08/05 02:13:41;;;;;;;5.45;1.95;;;22.20;88.80;;;;;;4969785;28;20045;-86
2021/08/05 02:16:13;;;;;;;7.43;2.30;;;22.20;88.40;;;;;;4988903;28;20042;-83
2021/08/05 02:18:45;;;;;;;4.40;1.63;;;22.30;88.00;;;;;;4989741;28;20027;-87
2021/08/05 02:21:13;;;;;;;3.30;1.55;;;22.40;87.80;;;;;;4989347;28;20128;-86
2021/08/05 02:23:40;;;;;;;5.22;2.03;;;22.40;87.50;;;;;;4972924;28;20036;-87
2021/08/05 02:26:06;;;;;;;4.10;1.88;;;22.50;87.30;;;;;;4988638;28;20487;-88
2021/08/05 02:28:32;;;;;;;2.75;2.00;;;22.50;87.00;;;;;;4988744;28;20034;-86
2021/08/05 02:30:58;;;;;;;4.53;1.50;;;22.60;86.70;;;;;;4989364;28;20035;-87
2021/08/05 02:33:27;;;;;;;8.38;2.03;;;22.60;86.30;;;;;;4990187;28;20034;-86
2021/08/05 02:35:53;;;;;;;3.90;1.73;;;22.60;86.20;;;;;;4990525;28;20054;-86
2021/08/05 02:38:19;;;;;;;5.20;2.08;;;22.60;86.00;;;;;;4989040;28;20034;-87
2021/08/05 02:40:47;;;;;;;4.38;2.00;;;22.60;86.70;;;;;;4988668;28;20030;-84
2021/08/05 02:43:14;;;;;;;1.80;1.30;;;22.60;86.40;;;;;;4990323;28;20101;-84
2021/08/05 02:45:41;;;;;;;3.85;1.63;;;22.60;85.90;;;;;;4989170;28;20030;-85
2021/08/05 02:48:08;;;;;;;4.63;1.77;;;22.60;85.60;;;;;;4990245;28;20027;-86
2021/08/05 02:50:35;;;;;;;7.70;1.58;;;22.70;85.40;;;;;;4988918;28;20037;-87
2021/08/05 02:53:02;;;;;;;8.73;1.60;;;22.70;85.30;;;;;;4988392;28;20026;-85
2021/08/05 02:55:28;;;;;;;10.50;1.50;;;22.70;85.00;;;;;;4988440;28;20570;-84
2021/08/05 02:57:55;;;;;;;3.13;1.65;;;22.70;84.90;;;;;;4989050;28;20054;-83
2021/08/05 03:00:22;;;;;;;5.60;1.85;;;22.70;85.00;;;;;;4989072;28;20043;-84
2021/08/05 03:02:48;;;;;;;5.63;1.48;;;22.70;84.90;;;;;;4973130;28;20096;-85
2021/08/05 03:05:15;;;;;;;5.53;1.80;;;22.70;85.00;;;;;;4989129;28;20076;-85
2021/08/05 03:07:41;;;;;;;2.67;1.40;;;22.70;84.80;;;;;;4989346;28;20512;-85
2021/08/05 03:10:08;;;;;;;4.15;1.60;;;22.60;84.80;;;;;;4988691;28;20105;-85
2021/08/05 03:12:34;;;;;;;3.53;1.20;;;22.70;84.80;;;;;;4988334;28;20027;-84
2021/08/05 03:15:00;;;;;;;9.20;1.45;;;22.70;84.50;;;;;;4990079;28;20810;-87
2021/08/05 03:17:26;;;;;;;3.40;1.35;;;22.70;84.60;;;;;;4989683;28;20419;-84
2021/08/05 03:19:52;;;;;;;3.88;1.50;;;22.70;84.40;;;;;;4989912;28;20227;-85
2021/08/05 03:22:18;;;;;;;4.07;1.50;;;22.70;84.20;;;;;;4972397;28;20066;-85
2021/08/05 03:24:43;;;;;;;6.82;1.63;;;22.70;84.00;;;;;;4987874;28;20030;-87
2021/08/05 03:27:10;;;;;;;8.45;1.50;;;22.70;83.90;;;;;;4987859;28;20113;-88
2021/08/05 03:29:36;;;;;;;4.40;1.52;;;22.60;84.00;;;;;;4972037;28;20092;-88
2021/08/05 03:32:02;;;;;;;2.42;1.50;;;22.60;84.10;;;;;;4988621;28;20061;-85
2021/08/05 03:34:27;;;;;;;3.10;1.48;;;22.60;84.00;;;;;;4989924;28;20018;-86
2021/08/05 03:36:53;;;;;;;4.05;1.27;;;22.60;84.00;;;;;;4971368;28;20038;-85
2021/08/05 03:39:19;;;;;;;5.32;1.80;;;22.60;84.00;;;;;;4971705;28;20034;-84
2021/08/05 03:41:45;;;;;;;3.08;1.30;;;22.60;84.00;;;;;;4988454;28;20026;-85
2021/08/05 03:44:11;;;;;;;2.78;1.38;;;22.60;83.80;;;;;;4987997;28;20506;-87
2021/08/05 03:46:36;;;;;;;8.55;1.80;;;22.60;83.70;;;;;;4988222;28;20027;-81
2021/08/05 03:49:03;;;;;;;6.50;1.58;;;22.60;83.70;;;;;;4988304;28;20049;-87
2021/08/05 03:51:28;;;;;;;4.60;1.95;;;22.70;83.30;;;;;;4988952;28;20040;-88
2021/08/05 03:53:54;;;;;;;2.83;1.65;;;22.60;83.20;;;;;;4989224;28;20026;-85
2021/08/05 03:56:20;;;;;;;3.95;1.60;;;22.60;83.90;;;;;;4989027;28;20049;-85
2021/08/05 03:58:46;;;;;;;6.05;1.95;;;22.80;83.00;;;;;;4971423;28;20377;-83
2021/08/05 04:01:11;;;;;;;2.10;1.20;;;22.70;83.20;;;;;;4988383;28;20030;-85
2021/08/05 04:03:37;;;;;;;5.80;1.50;;;22.70;83.20;;;;;;4990230;28;20036;-83
2021/08/05 04:06:02;;;;;;;3.08;1.60;;;22.80;83.30;;;;;;4989148;28;20033;-85
2021/08/05 04:08:28;;;;;;;2.60;1.58;;;22.80;83.20;;;;;;4987503;28;20034;-82
2021/08/05 04:10:54;;;;;;;5.82;1.70;;;22.80;83.30;;;;;;4987783;28;20448;-83
2021/08/05 04:13:19;;;;;;;3.50;1.90;;;22.90;83.20;;;;;;4987427;28;20863;-85
2021/08/05 04:15:45;;;;;;;7.10;2.08;;;22.90;83.10;;;;;;4987342;28;20570;-86
2021/08/05 04:18:11;;;;;;;9.07;1.88;;;23.10;83.00;;;;;;4987486;28;20034;-85
2021/08/05 04:20:37;;;;;;;4.25;1.73;;;23.10;82.80;;;;;;4987043;28;20081;-83
2021/08/05 04:23:03;;;;;;;9.27;2.25;;;23.20;82.20;;;;;;4988335;28;20108;-85
2021/08/05 04:25:29;;;;;;;5.53;1.60;;;23.30;81.90;;;;;;4988012;28;20110;-85
2021/08/05 04:27:55;;;;;;;4.75;1.90;;;23.40;81.00;;;;;;4987534;28;20030;-83
2021/08/05 04:30:21;;;;;;;6.78;2.45;;;23.40;80.70;;;;;;4986889;28;20326;-84
2021/08/05 04:32:47;;;;;;;5.38;2.25;;;23.40;80.10;;;;;;4986601;28;20447;-83
2021/08/05 04:35:13;;;;;;;9.13;2.00;;;23.40;79.90;;;;;;4986971;28;20030;-84
2021/08/05 04:37:52;;;;;;;4.78;1.85;;;23.40;79.60;;;;;;4985982;28;20553;-84
2021/08/05 04:40:19;;;;;;;8.77;2.28;;;23.50;78.80;;;;;;4987999;28;20026;-83
2021/08/05 04:42:45;;;;;;;7.03;2.20;;;23.40;78.50;;;;;;4987171;28;20128;-84
2021/08/05 04:45:11;;;;;;;3.55;2.00;;;23.40;78.50;;;;;;4986708;28;20506;-85
2021/08/05 04:47:51;;;;;;;4.70;1.67;;;23.30;78.30;;;;;;4986960;28;20027;-85
2021/08/05 04:50:18;;;;;;;3.75;2.08;;;23.30;78.70;;;;;;4986985;28;20492;-85
2021/08/05 04:52:43;;;;;;;4.32;2.00;;;23.30;78.70;;;;;;4986510;28;20026;-84
2021/08/05 04:55:09;;;;;;;9.98;2.20;;;23.30;78.10;;;;;;4987918;28;20196;-84
2021/08/05 04:57:45;;;;;;;6.43;2.28;;;23.40;77.70;;;;;;4970534;28;20042;-83
2021/08/05 05:00:11;;;;;;;;;;;23.40;76.80;;;;;;4986992;28;20027;-83
2021/08/05 05:02:37;;;;;;;5.63;2.20;;;23.40;76.60;;;;;;4986694;28;19913;-83
2021/08/05 05:05:02;;;;;;;4.28;2.00;;;23.30;76.70;;;;;;4986312;28;20493;-84
2021/08/05 05:07:28;;;;;;;4.80;2.22;;;23.30;76.10;;;;;;4987846;28;20384;-84
2021/08/05 05:09:54;;;;;;;7.85;2.30;;;23.30;76.20;;;;;;4986136;28;20030;-84
2021/08/05 05:12:19;;;;;;;15.63;2.70;;;23.40;75.90;;;;;;4986562;28;20502;-84
2021/08/05 05:14:45;;;;;;;5.85;2.20;;;23.40;75.50;;;;;;4986227;28;20022;-84
2021/08/05 05:17:10;;;;;;;7.00;2.50;;;23.40;75.50;;;;;;4985832;28;20049;-84
2021/08/05 05:19:36;;;;;;;7.55;2.08;;;23.50;75.30;;;;;;4986253;28;20037;-85
2021/08/05 05:22:02;;;;;;;6.03;2.00;;;23.60;75.20;;;;;;4986314;28;20061;-83
2021/08/05 05:24:28;;;;;;;8.70;2.28;;;23.70;74.60;;;;;;4987004;28;20626;-85
2021/08/05 05:26:53;;;;;;;6.22;2.40;;;23.70;74.20;;;;;;4981653;28;20384;-82
2021/08/05 05:29:19;;;;;;;7.80;2.20;;;23.90;74.30;;;;;;4968774;28;20507;-84
2021/08/05 05:31:45;;;;;;;12.45;2.75;;;23.80;74.60;;;;;;4984560;28;20081;-84
2021/08/05 05:34:10;;;;;;;9.75;3.20;;;23.90;75.10;;;;;;4969238;28;20034;-84
2021/08/05 05:36:36;;;;;;;10.18;3.00;;;23.90;74.90;;;;;;4982812;28;20043;-84
2021/08/05 05:39:02;;;;;;;8.52;2.63;;;23.80;75.40;;;;;;4966717;28;20034;-84
2021/08/05 05:41:28;;;;;;;5.47;2.92;;;24.00;75.00;;;;;;4985096;28;20030;-86
2021/08/05 05:43:54;;;;;;;4.65;3.28;;;24.20;74.50;;;;;;4986317;28;20027;-84
2021/08/05 05:46:19;;;;;;;6.70;2.60;;;24.50;73.90;;;;;;4985962;28;20046;-82
2021/08/05 05:48:45;;;;;;;6.03;3.42;;;24.70;73.10;;;;;;4969236;28;20500;-85
2021/08/05 05:51:11;;;;;;;8.20;3.30;;;24.90;72.10;;;;;;4988468;28;20052;-84
2021/08/05 05:53:36;;;;;;;8.93;2.75;;;25.10;70.70;;;;;;4988656;28;20408;-83
2021/08/05 05:56:02;;;;;;;9.02;3.05;;;25.40;70.60;;;;;;4987282;28;20271;-84
2021/08/05 05:58:28;;;;;;;7.50;3.15;;;25.50;70.30;;;;;;4989281;28;20038;-84
2021/08/05 06:00:54;;;;;;;8.63;3.17;;;25.60;69.90;;;;;;4988529;28;20030;-84
2021/08/05 06:03:19;;;;;;;13.68;4.10;;;25.60;68.90;;;;;;4989471;28;20034;-82
2021/08/05 06:05:45;;;;;;;11.77;3.75;;;25.40;69.50;;;;;;4973219;28;20487;-82
2021/08/05 06:08:11;;;;;;;8.90;3.60;;;24.90;70.80;;;;;;4989031;28;20034;-83
2021/08/05 06:10:37;;;;;;;7.60;3.15;;;24.60;72.60;;;;;;4989571;28;20030;-83
2021/08/05 06:13:03;;;;;;;10.02;3.50;;;24.50;73.20;;;;;;4990519;28;20041;-83
2021/08/05 06:15:28;;;;;;;13.23;3.92;;;24.50;73.90;;;;;;4990560;28;20057;-83
2021/08/05 06:17:54;;;;;;;9.55;3.75;;;24.40;75.00;;;;;;4989511;28;20507;-85
2021/08/05 06:20:20;;;;;;;16.02;4.00;;;24.30;75.30;;;;;;4990641;28;20587;-82
2021/08/05 06:22:48;;;;;;;19.42;4.88;;;24.10;75.70;;;;;;4990113;28;20058;-81
2021/08/05 06:25:14;;;;;;;12.23;4.30;;;24.00;75.80;;;;;;4972524;28;20122;-81
2021/08/05 06:27:41;;;;;;;11.95;4.30;;;23.80;76.30;;;;;;4989284;28;20037;-81
2021/08/05 06:30:08;;;;;;;12.98;5.10;;;23.70;77.20;;;;;;4988593;28;20034;-80
2021/08/05 06:32:34;;;;;;;11.73;4.35;;;23.70;77.90;;;;;;4989150;28;20022;-82
2021/08/05 06:35:00;;;;;;;17.67;4.60;;;23.60;77.70;;;;;;4989962;28;20084;-81
2021/08/05 06:37:26;;;;;;;15.70;4.40;;;23.60;77.80;;;;;;4989413;28;20069;-81
2021/08/05 06:39:53;;;;;;;13.23;3.97;;;23.70;77.20;;;;;;4989981;28;20030;-85
2021/08/05 06:42:18;;;;;;;9.15;4.03;;;23.70;77.10;;;;;;4990437;28;20061;-85
2021/08/05 06:44:44;;;;;;;13.40;4.50;;;23.70;77.10;;;;;;4990109;28;20113;-84
2021/08/05 06:47:10;;;;;;;9.23;5.10;;;23.70;77.00;;;;;;4990181;28;20030;-84
2021/08/05 06:49:35;;;;;;;6.90;3.47;;;23.80;76.20;;;;;;4988452;28;20491;-83
2021/08/05 06:52:01;;;;;;;5.30;3.60;;;23.90;76.20;;;;;;4987968;28;20030;-82
2021/08/05 06:54:27;;;;;;;6.47;4.40;;;24.00;75.20;;;;;;4988279;28;20109;-84
2021/08/05 06:56:53;;;;;;;12.60;3.92;;;24.10;74.50;;;;;;4990173;28;20038;-84
2021/08/05 06:59:19;;;;;;;9.82;4.68;;;24.20;73.90;;;;;;4989958;28;20068;-83
2021/08/05 07:01:46;;;;;;;10.43;3.60;;;24.10;73.60;;;;;;4989272;28;20049;-84
2021/08/05 07:04:12;;;;;;;6.13;3.60;;;23.90;74.10;;;;;;4988704;28;20034;-84
2021/08/05 07:06:37;;;;;;;12.48;4.05;;;24.00;73.50;;;;;;4989899;28;20030;-85
2021/08/05 07:09:03;;;;;;;6.10;3.35;;;24.10;72.50;;;;;;4987982;28;20023;-84
2021/08/05 07:11:29;;;;;;;8.57;3.55;;;24.20;71.80;;;;;;4988880;28;20031;-84
2021/08/05 07:13:54;;;;;;;6.18;3.60;;;24.00;72.50;;;;;;4988312;28;20058;-83
2021/08/05 07:16:20;;;;;;;7.35;3.78;;;24.00;72.60;;;;;;4988292;28;20042;-83
2021/08/05 07:18:46;;;;;;;6.38;3.53;;;24.00;72.60;;;;;;4987183;28;20026;-85
2021/08/05 07:21:11;;;;;;;8.15;4.25;;;24.00;72.10;;;;;;4989221;28;20547;-85
2021/08/05 07:23:37;;;;;;;9.02;3.30;;;23.90;70.50;;;;;;4988920;28;20029;-86
2021/08/05 07:26:02;;;;;;;8.35;4.03;;;23.90;70.70;;;;;;4972305;28;20030;-83
2021/08/05 07:28:28;;;;;;;5.22;3.50;;;23.80;70.60;;;;;;4972376;28;20042;-83
2021/08/05 07:30:57;;;;;;;6.07;3.22;;;23.80;70.50;;;;;;4988548;28;20030;-82
2021/08/05 07:33:23;;;;;;;8.27;3.25;;;23.70;71.20;;;;;;4989205;28;20881;-85
2021/08/05 07:35:49;;;;;;;7.55;3.83;;;23.60;71.30;;;;;;4988155;28;20022;-85
2021/08/05 07:38:14;;;;;;;8.75;3.85;;;23.60;71.30;;;;;;4972148;28;20034;-86
2021/08/05 07:40:40;;;;;;;8.45;3.92;;;23.50;71.60;;;;;;4989831;28;20030;-86
2021/08/05 07:43:06;;;;;;;11.27;4.13;;;23.40;73.20;;;;;;4989472;28;20555;-85
2021/08/05 07:45:33;;;;;;;15.80;4.05;;;23.30;76.30;;;;;;4989434;28;20027;-83
2021/08/05 07:47:59;;;;;;;11.73;4.40;;;23.10;80.20;;;;;;4989133;28;20029;-84
2021/08/05 07:50:25;;;;;;;13.90;4.63;;;22.80;83.90;;;;;;4989593;28;20483;-85
2021/08/05 07:52:50;;;;;;;11.45;4.45;;;22.50;87.40;;;;;;4988470;28;20034;-84
2021/08/05 07:55:16;;;;;;;5.90;4.53;;;22.10;89.50;;;;;;4971456;28;20041;-84
2021/08/05 07:57:42;;;;;;;11.45;5.35;;;21.90;90.50;;;;;;4987992;28;20042;-85
2021/08/05 08:00:09;;;;;;;9.38;4.57;;;21.90;91.10;;;;;;4987679;28;20062;-82
2021/08/05 08:02:34;;;;;;;7.22;4.70;;;21.90;91.10;;;;;;4987707;28;20081;-84
2021/08/05 08:05:00;;;;;;;6.18;4.47;;;21.90;91.90;;;;;;4988490;28;20026;-85
2021/08/05 08:07:26;;;;;;;7.20;4.20;;;22.00;92.50;;;;;;4970825;28;20022;-83
2021/08/05 08:09:51;;;;;;;7.55;4.13;;;22.10;91.90;;;;;;4988816;28;20027;-84
2021/08/05 08:12:17;;;;;;;6.88;4.15;;;22.10;91.30;;;;;;4988234;28;20849;-84
2021/08/05 08:14:43;;;;;;;7.13;4.18;;;22.20;91.30;;;;;;4987075;28;20564;-83
2021/08/05 08:17:09;;;;;;;5.20;4.20;;;22.10;91.30;;;;;;4970964;28;20042;-84
2021/08/05 08:19:35;;;;;;;11.65;3.53;;;22.10;91.40;;;;;;4987228;28;20027;-83
2021/08/05 08:22:01;;;;;;;9.65;4.38;;;22.10;91.10;;;;;;4987785;28;20109;-84
2021/08/05 08:24:27;;;;;;;5.75;2.90;;;22.20;90.00;;;;;;4970516;28;20026;-84
2021/08/05 08:26:53;;;;;;;9.32;3.53;;;22.30;87.40;;;;;;4970620;28;20030;-84
2021/08/05 08:29:18;;;;;;;5.60;2.72;;;22.40;84.80;;;;;;4986684;28;20030;-77
2021/08/05 08:31:44;;;;;;;7.75;3.00;;;22.50;85.20;;;;;;4970531;28;20499;-85
2021/08/05 08:34:10;;;;;;;6.35;3.35;;;22.40;85.00;;;;;;4986905;28;20064;-85
2021/08/05 08:36:36;;;;;;;3.83;2.80;;;22.30;85.10;;;;;;4986060;28;20097;-80
2021/08/05 08:39:03;;;;;;;4.60;2.45;;;22.40;83.60;;;;;;4970450;28;20029;-82
2021/08/05 08:41:30;;;;;;;6.75;3.22;;;22.60;84.80;;;;;;4970870;28;20566;-84
2021/08/05 08:43:55;;;;;;;8.32;2.95;;;22.60;82.90;;;;;;4988194;28;20158;-79
2021/08/05 08:46:22;;;;;;;9.30;3.08;;;22.70;80.70;;;;;;4987700;28;20034;-83
2021/08/05 08:48:52;;;;;;;4.20;2.60;;;22.80;81.20;;;;;;4986144;28;20030;-85
2021/08/05 08:51:19;;;;;;;7.75;2.83;;;23.00;81.30;;;;;;4986020;28;20031;-83
2021/08/05 08:53:49;;;;;;;5.00;2.92;;;23.00;81.10;;;;;;4986130;28;20061;-83
2021/08/05 08:56:15;;;;;;;4.43;2.50;;;23.00;81.90;;;;;;4987337;28;20072;-84
2021/08/05 08:58:41;;;;;;;5.68;2.00;;;22.90;81.00;;;;;;4986620;28;20384;-83
2021/08/05 09:01:09;;;;;;;4.82;2.72;;;23.10;80.60;;;;;;4987730;28;20030;-83
2021/08/05 09:03:35;;;;;;;5.93;2.58;;;23.10;80.30;;;;;;4987420;28;20025;-84
2021/08/05 09:06:00;;;;;;;8.50;2.20;;;23.10;79.40;;;;;;4985948;28;20026;-84
2021/08/05 09:08:26;;;;;;;4.22;2.28;;;23.10;79.20;;;;;;4969805;28;20157;-83
2021/08/05 09:10:58;;;;;;;3.85;2.70;;;23.10;79.80;;;;;;4987212;28;20026;-84
2021/08/05 09:13:24;;;;;;;7.63;2.88;;;23.10;79.20;;;;;;4987157;28;20065;-83
2021/08/05 09:15:50;;;;;;;6.00;2.72;;;23.00;79.50;;;;;;4986146;28;20169;-83
2021/08/05 09:18:32;;;;;;;5.28;2.92;;;22.90;80.40;;;;;;4985853;28;20042;-84
2021/08/05 09:21:07;;;;;;;6.82;3.00;;;22.90;81.00;;;;;;4969498;28;20943;-82
2021/08/05 09:24:01;;;;;;;4.68;2.35;;;22.90;81.30;;;;;;4986856;28;20051;-85
2021/08/05 09:26:36;;;;;;;4.75;2.65;;;22.80;83.10;;;;;;4969807;28;20084;-85
2021/08/05 09:29:06;;;;;;;10.27;2.72;;;22.80;85.80;;;;;;4969293;28;20030;-86
2021/08/05 09:31:34;;;;;;;3.92;2.70;;;22.70;87.50;;;;;;4969810;28;20037;-85
2021/08/05 09:34:05;;;;;;;9.63;2.72;;;22.70;87.80;;;;;;4986039;28;20105;-85
2021/08/05 09:36:31;;;;;;;6.30;3.17;;;22.60;86.80;;;;;;4985204;28;20579;-85
2021/08/05 09:38:57;;;;;;;15.55;4.50;;;22.60;87.40;;;;;;4986197;28;20101;-86
2021/08/05 09:41:23;;;;;;;14.07;4.85;;;22.50;89.80;;;;;;4986401;28;20054;-83
2021/08/05 09:43:49;;;;;;;7.90;4.95;;;22.40;90.90;;;;;;4968573;28;20034;-83
2021/08/05 09:46:29;;;;;;;9.18;4.63;;;22.30;92.10;;;;;;4986565;28;20027;-85
2021/08/05 09:48:55;;;;;;;10.73;5.00;;;22.10;92.80;;;;;;4986213;28;20129;-84
2021/08/05 09:51:21;;;;;;;9.27;5.13;;;21.90;93.00;;;;;;4968973;28;20137;-85
2021/08/05 09:54:01;;;;;;;9.20;5.60;;;21.70;94.00;;;;;;4987218;28;20165;-80
2021/08/05 09:56:28;;;;;;;13.45;5.22;;;21.50;95.50;;;;;;4985840;28;20041;-85
2021/08/05 09:59:23;;;;;;;14.70;6.68;;;21.30;96.60;;;;;;4986733;28;20068;-84
2021/08/05 10:02:07;;;;;;;11.15;4.93;;;21.20;97.80;;;;;;4965411;28;20042;-83
2021/08/05 10:04:35;;;;;;;9.15;4.97;;;21.00;98.00;;;;;;4974257;28;20561;-86
2021/08/05 10:07:03;;;;;;;10.82;5.38;;;20.90;99.10;;;;;;4983389;28;20113;-85
2021/08/05 10:09:29;;;;;;;13.32;5.78;;;20.80;99.80;;;;;;4980877;28;20030;-86
2021/08/05 10:12:23;;;;;;;10.52;5.93;;;20.60;99.90;;;;;;4984872;28;20023;-86
2021/08/05 10:14:51;;;;;;;12.00;5.57;;;20.50;99.90;;;;;;4983537;28;20030;-85
2021/08/05 10:17:18;;;;;;;16.63;5.60;;;20.30;99.90;;;;;;4983869;28;20076;-87
2021/08/05 10:19:48;;;;;;;16.00;6.45;;;20.20;99.90;;;;;;4984456;28;20143;-86
2021/08/05 10:22:16;;;;;;;11.55;6.32;;;20.10;99.90;;;;;;4984057;28;20061;-86
2021/08/05 10:24:45;;;;;;;11.60;5.78;;;20.10;99.90;;;;;;4984411;28;20032;-81
2021/08/05 10:27:52;;;;;;;14.07;6.60;;;20.00;99.90;;;;;;4968995;28;20026;-82
2021/08/05 10:31:10;;;;;;;12.13;6.15;;;19.90;99.90;;;;;;4994561;28;20045;-83
2021/08/05 10:40:23;;;;;;;10.18;7.60;;;19.70;99.90;;;;;;4996428;28;20419;-82
2021/08/05 10:42:49;;;;;;;9.93;6.05;;;19.90;99.90;;;;;;4981279;28;20029;-87
2021/08/05 10:45:20;;;;;;;10.05;6.20;;;20.30;99.90;;;;;;4980842;28;20173;-86
2021/08/05 10:47:47;;;;;;;11.77;6.15;;;20.60;99.90;;;;;;4989568;28;20026;-85
2021/08/05 10:50:16;;;;;;;10.85;6.50;;;21.00;99.90;;;;;;4988999;28;20033;-86
2021/08/05 10:52:44;;;;;;;12.00;6.50;;;21.20;99.90;;;;;;4993179;28;20116;-89
2021/08/05 10:55:16;;;;;;;13.82;6.53;;;21.50;99.90;;;;;;4992649;28;20121;-87
2021/08/05 10:57:43;;;;;;;15.10;6.47;;;21.80;99.90;;;;;;4992270;28;20029;-89
2021/08/05 11:00:13;;;;;;;11.15;6.38;;;21.90;99.90;;;;;;4985002;28;20097;-84
2021/08/05 11:02:49;;;;;;;9.55;5.75;;;22.00;99.90;;;;;;4979622;28;20073;-86
2021/08/05 11:05:21;;;;;;;;;;;22.10;99.90;;;;;;4977508;28;20038;-87
2021/08/05 11:07:47;;;;;;;11.35;5.78;;;22.10;99.90;;;;;;4980357;28;19918;-87
2021/08/05 11:10:14;;;;;;;13.05;5.95;;;22.30;99.40;;;;;;4986404;28;20021;-85
2021/08/05 11:12:45;;;;;;;13.40;6.13;;;22.30;99.10;;;;;;4978954;28;20037;-86
2021/08/05 11:15:25;;;;;;;11.77;6.68;;;22.40;98.90;;;;;;4987827;28;20109;-86
2021/08/05 11:18:09;;;;;;;8.60;5.80;;;22.70;99.20;;;;;;4972015;28;20034;-85
2021/08/05 11:20:37;;;;;;;8.80;5.82;;;22.80;98.40;;;;;;4964492;28;20040;-87
2021/08/05 11:23:04;;;;;;;11.15;6.47;;;23.00;98.30;;;;;;4974715;28;20408;-86
2021/08/05 11:26:11;;;;;;;12.43;6.03;;;23.20;98.10;;;;;;4963328;28;20046;-86
2021/08/05 11:28:55;;;;;;;15.50;7.03;;;23.50;97.60;;;;;;4972378;28;20088;-87
2021/08/05 11:31:23;;;;;;;9.65;6.70;;;23.60;97.70;;;;;;4974346;28;20036;-87
2021/08/05 11:33:54;;;;;;;12.23;6.00;;;23.90;97.30;;;;;;4967127;28;20066;-85
2021/08/05 11:36:32;;;;;;;11.48;6.95;;;24.00;96.20;;;;;;4980252;28;20077;-86
2021/08/05 11:39:06;;;;;;;11.52;6.25;;;24.10;95.40;;;;;;4978040;28;20050;-87
2021/08/05 11:41:43;;;;;;;11.18;6.68;;;24.00;94.60;;;;;;4978435;28;20047;-86
2021/08/05 11:44:35;;;;;;;14.60;6.43;;;23.80;95.30;;;;;;4991473;28;20537;-87
2021/08/05 11:47:09;;;;;;;8.63;6.05;;;23.70;95.10;;;;;;4995248;28;20049;-85
2021/08/05 11:49:59;;;;;;;10.95;5.95;;;23.50;94.40;;;;;;4971005;28;20093;-88
2021/08/05 11:52:28;;;;;;;11.38;7.20;;;23.20;94.80;;;;;;4979030;28;20057;-87
2021/08/05 11:54:58;;;;;;;11.18;6.60;;;22.90;95.90;;;;;;4979731;28;20050;-88
2021/08/05 11:57:24;;;;;;;13.88;7.15;;;22.50;96.60;;;;;;4963545;28;20039;-87
2021/08/05 11:59:53;;;;;;;10.70;6.57;;;22.30;98.00;;;;;;4980394;28;20049;-87
2021/08/05 12:02:24;;;;;;;14.90;6.40;;;22.10;98.90;;;;;;4987877;28;20075;-87
2021/08/05 12:04:51;;;;;;;10.30;6.78;;;22.00;99.10;;;;;;4995606;28;20030;-87
2021/08/05 12:07:25;;;;;;;15.48;8.10;;;21.90;98.60;;;;;;4998039;28;20121;-88
2021/08/05 12:10:03;;;;;;;11.65;7.32;;;21.80;99.10;;;;;;4992750;28;20418;-87
2021/08/05 12:12:55;;;;;;;15.98;7.10;;;21.80;99.70;;;;;;4986445;28;20039;-86
2021/08/05 12:15:29;;;;;;;10.82;7.63;;;21.60;99.60;;;;;;5001335;28;20068;-87
2021/08/05 12:17:58;;;;;;;12.82;7.30;;;21.70;99.60;;;;;;4992761;28;20033;-90
2021/08/05 12:20:31;;;;;;;14.13;7.72;;;21.60;99.90;;;;;;4983773;28;20129;-89
2021/08/05 12:23:02;;;;;;;12.82;6.88;;;21.70;99.40;;;;;;4988186;28;20520;-87
2021/08/05 12:25:41;;;;;;;8.98;6.65;;;21.70;99.90;;;;;;4987169;28;20045;-88
2021/08/05 12:28:16;;;;;;;10.25;7.28;;;21.80;99.80;;;;;;4991162;28;20196;-86
2021/08/05 12:30:54;;;;;;;12.80;7.38;;;21.90;99.70;;;;;;4995987;28;20084;-88
2021/08/05 12:33:23;;;;;;;13.25;7.90;;;22.10;99.70;;;;;;4994478;28;20034;-88
2021/08/05 12:36:01;;;;;;;11.32;6.55;;;22.10;99.40;;;;;;4983815;28;20038;-84
2021/08/05 12:38:28;;;;;;;14.13;5.95;;;22.20;99.40;;;;;;4967848;28;20050;-85
2021/08/05 12:40:55;;;;;;;12.65;6.97;;;22.20;99.50;;;;;;4984536;28;20097;-86
2021/08/05 12:43:26;;;;;;;12.18;6.95;;;22.20;99.50;;;;;;4990241;28;20143;-87
2021/08/05 12:45:53;;;;;;;10.95;6.60;;;22.20;98.80;;;;;;4982591;28;20042;-87
2021/08/05 12:48:21;;;;;;;11.48;5.57;;;22.30;98.20;;;;;;4991730;28;20030;-87
2021/08/05 12:50:47;;;;;;;9.70;5.50;;;22.20;98.40;;;;;;4995539;28;20042;-88
2021/08/05 12:53:33;;;;;;;10.75;5.45;;;22.30;98.20;;;;;;4990909;28;20507;-87
2021/08/05 12:56:04;;;;;;;7.93;6.10;;;22.40;98.30;;;;;;4987713;28;20046;-87
2021/08/05 12:58:30;;;;;;;12.77;6.00;;;22.60;98.50;;;;;;4987624;28;20046;-86
2021/08/05 13:01:21;;;;;;;13.70;6.15;;;22.80;98.20;;;;;;4989195;28;20038;-87